sensor_id;sensor_type;location;lat;lon;timestamp;temperature;humidity
23748;DHT22;12054;53.662;10.126;2022-08-21T00:01:24;17.80;91.20
23748;DHT22;12054;53.662;10.126;2022-08-21T00:03:50;17.80;91.30
23748;DHT22;12054;53.662;10.126;2022-08-21T00:06:16;17.70;91.30
23748;DHT22;12054;53.662;10.126;2022-08-21T00:08:45;17.60;91.40
23748;DHT22;12054;53.662;10.126;2022-08-21T00:11:10;17.60;91.40
23748;DHT22;12054;53.662;10.126;2022-08-21T00:13:39;17.60;91.50
23748;DHT22;12054;53.662;10.126;2022-08-21T00:16:05;17.60;91.50
23748;DHT22;12054;53.662;10.126;2022-08-21T00:18:31;17.60;91.60
23748;DHT22;12054;53.662;10.126;2022-08-21T00:20:56;17.50;91.50
23748;DHT22;12054;53.662;10.126;2022-08-21T00:23:22;17.50;91.60
23748;DHT22;12054;53.662;10.126;2022-08-21T00:25:48;17.40;91.60
23748;DHT22;12054;53.662;10.126;2022-08-21T00:28:14;17.40;91.70
23748;DHT22;12054;53.662;10.126;2022-08-21T00:30:41;17.40;91.80
23748;DHT22;12054;53.662;10.126;2022-08-21T00:33:07;17.40;91.80
23748;DHT22;12054;53.662;10.126;2022-08-21T00:35:35;17.30;91.90
23748;DHT22;12054;53.662;10.126;2022-08-21T00:38:03;17.30;92.00
23748;DHT22;12054;53.662;10.126;2022-08-21T00:40:52;17.30;92.10
23748;DHT22;12054;53.662;10.126;2022-08-21T00:43:21;17.30;92.10
23748;DHT22;12054;53.662;10.126;2022-08-21T00:45:47;17.20;92.00
23748;DHT22;12054;53.662;10.126;2022-08-21T00:48:13;17.20;92.00
23748;DHT22;12054;53.662;10.126;2022-08-21T00:50:43;17.20;92.20
23748;DHT22;12054;53.662;10.126;2022-08-21T00:53:10;17.10;92.10
23748;DHT22;12054;53.662;10.126;2022-08-21T00:55:37;17.10;92.20
23748;DHT22;12054;53.662;10.126;2022-08-21T00:58:04;17.10;92.30
23748;DHT22;12054;53.662;10.126;2022-08-21T01:00:34;17.10;92.30
23748;DHT22;12054;53.662;10.126;2022-08-21T01:03:04;17.00;92.30
23748;DHT22;12054;53.662;10.126;2022-08-21T01:05:30;17.00;92.30
23748;DHT22;12054;53.662;10.126;2022-08-21T01:07:57;17.00;92.30
23748;DHT22;12054;53.662;10.126;2022-08-21T01:10:23;17.00;92.40
23748;DHT22;12054;53.662;10.126;2022-08-21T01:12:54;16.90;92.40
23748;DHT22;12054;53.662;10.126;2022-08-21T01:15:22;16.90;92.50
23748;DHT22;12054;53.662;10.126;2022-08-21T01:17:49;16.80;92.60
23748;DHT22;12054;53.662;10.126;2022-08-21T01:20:15;16.80;92.70
23748;DHT22;12054;53.662;10.126;2022-08-21T01:22:42;16.80;92.80
23748;DHT22;12054;53.662;10.126;2022-08-21T01:25:09;16.80;92.90
23748;DHT22;12054;53.662;10.126;2022-08-21T01:27:35;16.70;92.90
23748;DHT22;12054;53.662;10.126;2022-08-21T01:30:19;16.70;92.90
23748;DHT22;12054;53.662;10.126;2022-08-21T01:32:46;16.70;93.00
23748;DHT22;12054;53.662;10.126;2022-08-21T01:35:14;16.70;93.00
23748;DHT22;12054;53.662;10.126;2022-08-21T01:37:40;16.60;93.00
23748;DHT22;12054;53.662;10.126;2022-08-21T01:40:07;16.60;93.10
23748;DHT22;12054;53.662;10.126;2022-08-21T01:42:34;16.60;93.10
23748;DHT22;12054;53.662;10.126;2022-08-21T01:44:59;16.50;93.10
23748;DHT22;12054;53.662;10.126;2022-08-21T01:47:26;16.50;93.20
23748;DHT22;12054;53.662;10.126;2022-08-21T01:49:52;16.50;93.30
23748;DHT22;12054;53.662;10.126;2022-08-21T01:52:17;16.50;93.30
23748;DHT22;12054;53.662;10.126;2022-08-21T01:54:43;16.40;93.30
23748;DHT22;12054;53.662;10.126;2022-08-21T01:57:09;16.40;93.40
23748;DHT22;12054;53.662;10.126;2022-08-21T01:59:35;16.40;93.50
23748;DHT22;12054;53.662;10.126;2022-08-21T02:02:02;16.40;93.50
23748;DHT22;12054;53.662;10.126;2022-08-21T02:04:28;16.30;93.60
23748;DHT22;12054;53.662;10.126;2022-08-21T02:06:54;16.30;93.60
23748;DHT22;12054;53.662;10.126;2022-08-21T02:09:19;16.30;93.60
23748;DHT22;12054;53.662;10.126;2022-08-21T02:11:46;16.30;93.60
23748;DHT22;12054;53.662;10.126;2022-08-21T02:14:14;16.30;93.70
23748;DHT22;12054;53.662;10.126;2022-08-21T02:16:41;16.20;93.70
23748;DHT22;12054;53.662;10.126;2022-08-21T02:19:07;16.20;93.80
23748;DHT22;12054;53.662;10.126;2022-08-21T02:21:33;16.20;93.80
23748;DHT22;12054;53.662;10.126;2022-08-21T02:23:59;16.20;93.90
23748;DHT22;12054;53.662;10.126;2022-08-21T02:26:25;16.10;93.90
23748;DHT22;12054;53.662;10.126;2022-08-21T02:28:51;16.10;93.90
23748;DHT22;12054;53.662;10.126;2022-08-21T02:31:16;16.10;94.00
23748;DHT22;12054;53.662;10.126;2022-08-21T02:33:42;16.10;94.00
23748;DHT22;12054;53.662;10.126;2022-08-21T02:36:09;16.00;94.00
23748;DHT22;12054;53.662;10.126;2022-08-21T02:38:35;16.10;94.10
23748;DHT22;12054;53.662;10.126;2022-08-21T02:41:17;16.00;94.10
23748;DHT22;12054;53.662;10.126;2022-08-21T02:43:43;16.00;94.20
23748;DHT22;12054;53.662;10.126;2022-08-21T02:46:10;16.00;94.30
23748;DHT22;12054;53.662;10.126;2022-08-21T02:48:37;15.90;94.30
23748;DHT22;12054;53.662;10.126;2022-08-21T02:51:08;15.90;94.30
23748;DHT22;12054;53.662;10.126;2022-08-21T02:53:34;15.90;94.30
23748;DHT22;12054;53.662;10.126;2022-08-21T02:56:02;15.90;94.30
23748;DHT22;12054;53.662;10.126;2022-08-21T02:58:32;15.80;94.40
23748;DHT22;12054;53.662;10.126;2022-08-21T03:00:58;15.90;94.40
23748;DHT22;12054;53.662;10.126;2022-08-21T03:03:25;15.80;94.40
23748;DHT22;12054;53.662;10.126;2022-08-21T03:05:52;15.80;94.50
23748;DHT22;12054;53.662;10.126;2022-08-21T03:08:18;15.80;94.50
23748;DHT22;12054;53.662;10.126;2022-08-21T03:10:46;15.80;94.60
23748;DHT22;12054;53.662;10.126;2022-08-21T03:13:13;15.70;94.60
23748;DHT22;12054;53.662;10.126;2022-08-21T03:15:39;15.70;94.70
23748;DHT22;12054;53.662;10.126;2022-08-21T03:18:05;15.70;94.70
23748;DHT22;12054;53.662;10.126;2022-08-21T03:20:33;15.70;94.70
23748;DHT22;12054;53.662;10.126;2022-08-21T03:23:00;15.70;94.80
23748;DHT22;12054;53.662;10.126;2022-08-21T03:25:27;15.60;94.80
23748;DHT22;12054;53.662;10.126;2022-08-21T03:27:53;15.60;94.80
23748;DHT22;12054;53.662;10.126;2022-08-21T03:30:21;15.60;94.90
23748;DHT22;12054;53.662;10.126;2022-08-21T03:32:48;15.60;95.00
23748;DHT22;12054;53.662;10.126;2022-08-21T03:35:15;15.60;95.10
23748;DHT22;12054;53.662;10.126;2022-08-21T03:37:40;15.60;95.10
23748;DHT22;12054;53.662;10.126;2022-08-21T03:40:07;15.50;95.20
23748;DHT22;12054;53.662;10.126;2022-08-21T03:42:33;15.50;95.20
23748;DHT22;12054;53.662;10.126;2022-08-21T03:44:59;15.50;95.30
23748;DHT22;12054;53.662;10.126;2022-08-21T03:47:25;15.40;95.40
23748;DHT22;12054;53.662;10.126;2022-08-21T03:49:51;15.50;95.50
23748;DHT22;12054;53.662;10.126;2022-08-21T03:52:17;15.40;95.50
23748;DHT22;12054;53.662;10.126;2022-08-21T03:54:44;15.40;95.50
23748;DHT22;12054;53.662;10.126;2022-08-21T03:57:10;15.40;95.60
23748;DHT22;12054;53.662;10.126;2022-08-21T03:59:37;15.40;95.70
23748;DHT22;12054;53.662;10.126;2022-08-21T04:02:06;15.40;95.80
23748;DHT22;12054;53.662;10.126;2022-08-21T04:04:32;15.40;95.80
23748;DHT22;12054;53.662;10.126;2022-08-21T04:06:58;15.30;95.80
23748;DHT22;12054;53.662;10.126;2022-08-21T04:09:24;15.30;95.90
23748;DHT22;12054;53.662;10.126;2022-08-21T04:11:50;15.30;96.00
23748;DHT22;12054;53.662;10.126;2022-08-21T04:14:16;15.30;96.10
23748;DHT22;12054;53.662;10.126;2022-08-21T04:16:43;15.30;96.10
23748;DHT22;12054;53.662;10.126;2022-08-21T04:19:09;15.30;96.20
23748;DHT22;12054;53.662;10.126;2022-08-21T04:21:38;15.20;96.20
23748;DHT22;12054;53.662;10.126;2022-08-21T04:24:05;15.20;96.30
23748;DHT22;12054;53.662;10.126;2022-08-21T04:26:33;15.20;96.40
23748;DHT22;12054;53.662;10.126;2022-08-21T04:29:00;15.20;96.40
23748;DHT22;12054;53.662;10.126;2022-08-21T04:31:26;15.20;96.50
23748;DHT22;12054;53.662;10.126;2022-08-21T04:33:54;15.10;96.50
23748;DHT22;12054;53.662;10.126;2022-08-21T04:36:19;15.10;96.50
23748;DHT22;12054;53.662;10.126;2022-08-21T04:38:45;15.20;96.60
23748;DHT22;12054;53.662;10.126;2022-08-21T04:41:10;15.10;96.60
23748;DHT22;12054;53.662;10.126;2022-08-21T04:43:38;15.10;96.70
23748;DHT22;12054;53.662;10.126;2022-08-21T04:46:04;15.10;96.80
23748;DHT22;12054;53.662;10.126;2022-08-21T04:48:29;15.10;96.80
23748;DHT22;12054;53.662;10.126;2022-08-21T04:53:35;15.10;97.00
23748;DHT22;12054;53.662;10.126;2022-08-21T04:56:04;15.00;97.10
23748;DHT22;12054;53.662;10.126;2022-08-21T04:58:34;15.00;97.10
23748;DHT22;12054;53.662;10.126;2022-08-21T05:01:02;15.00;97.30
23748;DHT22;12054;53.662;10.126;2022-08-21T05:03:30;15.00;97.40
23748;DHT22;12054;53.662;10.126;2022-08-21T05:05:57;15.00;97.50
23748;DHT22;12054;53.662;10.126;2022-08-21T05:08:24;15.00;97.60
23748;DHT22;12054;53.662;10.126;2022-08-21T05:10:52;15.00;97.70
23748;DHT22;12054;53.662;10.126;2022-08-21T05:13:18;15.00;97.70
23748;DHT22;12054;53.662;10.126;2022-08-21T05:15:44;15.00;97.80
23748;DHT22;12054;53.662;10.126;2022-08-21T05:18:10;15.00;97.90
23748;DHT22;12054;53.662;10.126;2022-08-21T05:20:37;15.00;98.10
23748;DHT22;12054;53.662;10.126;2022-08-21T05:23:08;15.00;98.20
23748;DHT22;12054;53.662;10.126;2022-08-21T05:25:33;15.00;98.30
23748;DHT22;12054;53.662;10.126;2022-08-21T05:27:59;15.00;98.40
23748;DHT22;12054;53.662;10.126;2022-08-21T05:30:24;15.00;98.50
23748;DHT22;12054;53.662;10.126;2022-08-21T05:32:56;15.00;98.70
23748;DHT22;12054;53.662;10.126;2022-08-21T05:35:23;15.00;98.80
23748;DHT22;12054;53.662;10.126;2022-08-21T05:37:48;15.00;99.00
23748;DHT22;12054;53.662;10.126;2022-08-21T05:40:14;15.00;99.10
23748;DHT22;12054;53.662;10.126;2022-08-21T05:42:39;15.10;99.30
23748;DHT22;12054;53.662;10.126;2022-08-21T05:45:06;15.10;99.40
23748;DHT22;12054;53.662;10.126;2022-08-21T05:47:31;15.10;99.50
23748;DHT22;12054;53.662;10.126;2022-08-21T05:49:57;15.10;99.60
23748;DHT22;12054;53.662;10.126;2022-08-21T05:52:23;15.20;99.70
23748;DHT22;12054;53.662;10.126;2022-08-21T05:54:49;15.10;99.80
23748;DHT22;12054;53.662;10.126;2022-08-21T05:57:15;15.20;99.90
23748;DHT22;12054;53.662;10.126;2022-08-21T05:59:40;15.20;99.90
23748;DHT22;12054;53.662;10.126;2022-08-21T06:02:06;15.20;99.90
23748;DHT22;12054;53.662;10.126;2022-08-21T06:04:38;15.20;99.90
23748;DHT22;12054;53.662;10.126;2022-08-21T06:07:04;15.20;99.90
23748;DHT22;12054;53.662;10.126;2022-08-21T06:09:30;15.20;99.90
23748;DHT22;12054;53.662;10.126;2022-08-21T06:11:55;15.30;99.90
23748;DHT22;12054;53.662;10.126;2022-08-21T06:14:21;15.30;99.90
23748;DHT22;12054;53.662;10.126;2022-08-21T06:16:46;15.30;99.90
23748;DHT22;12054;53.662;10.126;2022-08-21T06:19:12;15.40;99.90
23748;DHT22;12054;53.662;10.126;2022-08-21T06:21:37;15.40;99.90
23748;DHT22;12054;53.662;10.126;2022-08-21T06:24:04;15.50;99.90
23748;DHT22;12054;53.662;10.126;2022-08-21T06:26:30;15.50;99.90
23748;DHT22;12054;53.662;10.126;2022-08-21T06:28:56;15.50;99.90
23748;DHT22;12054;53.662;10.126;2022-08-21T06:31:23;15.50;99.90
23748;DHT22;12054;53.662;10.126;2022-08-21T06:33:49;15.50;99.90
23748;DHT22;12054;53.662;10.126;2022-08-21T06:36:15;15.60;99.90
23748;DHT22;12054;53.662;10.126;2022-08-21T06:38:41;15.60;99.90
23748;DHT22;12054;53.662;10.126;2022-08-21T06:41:07;15.70;99.90
23748;DHT22;12054;53.662;10.126;2022-08-21T06:43:32;15.70;99.90
23748;DHT22;12054;53.662;10.126;2022-08-21T06:45:58;15.80;99.90
23748;DHT22;12054;53.662;10.126;2022-08-21T06:48:23;15.80;99.90
23748;DHT22;12054;53.662;10.126;2022-08-21T06:50:49;15.90;99.90
23748;DHT22;12054;53.662;10.126;2022-08-21T06:53:18;15.90;99.90
23748;DHT22;12054;53.662;10.126;2022-08-21T06:55:45;15.90;99.90
23748;DHT22;12054;53.662;10.126;2022-08-21T06:58:12;16.00;99.90
23748;DHT22;12054;53.662;10.126;2022-08-21T07:00:44;16.00;99.90
23748;DHT22;12054;53.662;10.126;2022-08-21T07:05:43;16.10;99.90
23748;DHT22;12054;53.662;10.126;2022-08-21T07:08:08;16.20;99.90
23748;DHT22;12054;53.662;10.126;2022-08-21T07:10:34;16.20;99.90
23748;DHT22;12054;53.662;10.126;2022-08-21T07:12:59;16.20;99.90
23748;DHT22;12054;53.662;10.126;2022-08-21T07:15:25;16.30;99.90
23748;DHT22;12054;53.662;10.126;2022-08-21T07:17:50;16.40;99.90
23748;DHT22;12054;53.662;10.126;2022-08-21T07:20:16;16.40;99.90
23748;DHT22;12054;53.662;10.126;2022-08-21T07:22:42;16.60;99.90
23748;DHT22;12054;53.662;10.126;2022-08-21T07:25:07;16.70;99.90
23748;DHT22;12054;53.662;10.126;2022-08-21T07:27:33;16.90;99.90
23748;DHT22;12054;53.662;10.126;2022-08-21T07:29:59;17.10;99.90
23748;DHT22;12054;53.662;10.126;2022-08-21T07:32:24;17.30;99.90
23748;DHT22;12054;53.662;10.126;2022-08-21T07:34:50;17.50;99.90
23748;DHT22;12054;53.662;10.126;2022-08-21T07:37:15;17.70;99.90
23748;DHT22;12054;53.662;10.126;2022-08-21T07:39:41;17.90;99.90
23748;DHT22;12054;53.662;10.126;2022-08-21T07:42:07;18.10;99.50
23748;DHT22;12054;53.662;10.126;2022-08-21T07:44:32;18.20;99.10
23748;DHT22;12054;53.662;10.126;2022-08-21T07:47:00;18.40;98.70
23748;DHT22;12054;53.662;10.126;2022-08-21T07:49:26;18.60;98.40
23748;DHT22;12054;53.662;10.126;2022-08-21T07:51:52;18.90;97.90
23748;DHT22;12054;53.662;10.126;2022-08-21T07:54:17;19.10;97.40
23748;DHT22;12054;53.662;10.126;2022-08-21T07:56:43;19.30;97.00
23748;DHT22;12054;53.662;10.126;2022-08-21T07:59:08;19.60;96.50
23748;DHT22;12054;53.662;10.126;2022-08-21T08:01:34;19.70;95.80
23748;DHT22;12054;53.662;10.126;2022-08-21T08:03:59;19.80;95.30
23748;DHT22;12054;53.662;10.126;2022-08-21T08:06:25;20.00;95.20
23748;DHT22;12054;53.662;10.126;2022-08-21T08:08:51;20.10;94.50
23748;DHT22;12054;53.662;10.126;2022-08-21T08:11:17;20.30;93.90
23748;DHT22;12054;53.662;10.126;2022-08-21T08:13:46;20.50;93.60
23748;DHT22;12054;53.662;10.126;2022-08-21T08:16:13;20.70;93.30
23748;DHT22;12054;53.662;10.126;2022-08-21T08:18:38;21.00;93.10
23748;DHT22;12054;53.662;10.126;2022-08-21T08:21:05;21.10;92.80
23748;DHT22;12054;53.662;10.126;2022-08-21T08:23:31;21.40;92.50
23748;DHT22;12054;53.662;10.126;2022-08-21T08:25:58;21.50;92.20
23748;DHT22;12054;53.662;10.126;2022-08-21T08:28:24;21.70;91.90
23748;DHT22;12054;53.662;10.126;2022-08-21T08:30:50;21.80;91.50
23748;DHT22;12054;53.662;10.126;2022-08-21T08:33:17;21.90;91.20
23748;DHT22;12054;53.662;10.126;2022-08-21T08:35:45;22.00;90.90
23748;DHT22;12054;53.662;10.126;2022-08-21T08:38:11;22.10;90.80
23748;DHT22;12054;53.662;10.126;2022-08-21T08:41:07;22.20;90.60
23748;DHT22;12054;53.662;10.126;2022-08-21T08:43:36;22.40;90.30
23748;DHT22;12054;53.662;10.126;2022-08-21T08:46:06;22.60;90.20
23748;DHT22;12054;53.662;10.126;2022-08-21T08:51:44;22.90;89.30
23748;DHT22;12054;53.662;10.126;2022-08-21T08:54:16;23.00;88.60
23748;DHT22;12054;53.662;10.126;2022-08-21T08:56:43;23.10;88.30
23748;DHT22;12054;53.662;10.126;2022-08-21T08:59:15;23.30;88.00
23748;DHT22;12054;53.662;10.126;2022-08-21T09:01:43;23.50;87.30
23748;DHT22;12054;53.662;10.126;2022-08-21T09:04:10;23.70;86.80
23748;DHT22;12054;53.662;10.126;2022-08-21T09:06:46;23.90;86.50
23748;DHT22;12054;53.662;10.126;2022-08-21T09:09:42;24.00;85.90
23748;DHT22;12054;53.662;10.126;2022-08-21T09:21:07;24.60;84.90
23748;DHT22;12054;53.662;10.126;2022-08-21T09:26:20;24.80;84.30
23748;DHT22;12054;53.662;10.126;2022-08-21T09:28:53;25.00;83.50
23748;DHT22;12054;53.662;10.126;2022-08-21T09:31:35;25.10;82.60
23748;DHT22;12054;53.662;10.126;2022-08-21T09:34:09;25.20;82.10
23748;DHT22;12054;53.662;10.126;2022-08-21T09:36:42;25.40;81.30
23748;DHT22;12054;53.662;10.126;2022-08-21T09:39:11;25.50;80.50
23748;DHT22;12054;53.662;10.126;2022-08-21T09:41:38;25.60;79.80
23748;DHT22;12054;53.662;10.126;2022-08-21T09:44:05;25.60;79.80
23748;DHT22;12054;53.662;10.126;2022-08-21T09:46:31;25.60;79.50
23748;DHT22;12054;53.662;10.126;2022-08-21T09:48:59;25.80;79.20
23748;DHT22;12054;53.662;10.126;2022-08-21T09:51:36;25.90;78.40
23748;DHT22;12054;53.662;10.126;2022-08-21T09:56:36;26.10;76.80
23748;DHT22;12054;53.662;10.126;2022-08-21T09:59:28;26.10;76.50
23748;DHT22;12054;53.662;10.126;2022-08-21T10:01:57;26.20;75.70
23748;DHT22;12054;53.662;10.126;2022-08-21T10:04:29;26.20;75.20
23748;DHT22;12054;53.662;10.126;2022-08-21T10:07:05;26.30;75.00
23748;DHT22;12054;53.662;10.126;2022-08-21T10:09:30;26.40;74.70
23748;DHT22;12054;53.662;10.126;2022-08-21T10:14:36;26.50;73.90
23748;DHT22;12054;53.662;10.126;2022-08-21T10:17:17;26.60;73.60
23748;DHT22;12054;53.662;10.126;2022-08-21T10:19:55;26.60;73.70
23748;DHT22;12054;53.662;10.126;2022-08-21T10:22:46;26.70;74.10
23748;DHT22;12054;53.662;10.126;2022-08-21T10:25:23;26.70;73.60
23748;DHT22;12054;53.662;10.126;2022-08-21T10:28:12;26.70;73.40
23748;DHT22;12054;53.662;10.126;2022-08-21T10:31:30;26.70;73.50
23748;DHT22;12054;53.662;10.126;2022-08-21T10:39:03;26.60;74.20
23748;DHT22;12054;53.662;10.126;2022-08-21T10:41:45;26.70;73.60
23748;DHT22;12054;53.662;10.126;2022-08-21T10:44:24;26.80;73.00
23748;DHT22;12054;53.662;10.126;2022-08-21T10:47:02;26.80;72.50
23748;DHT22;12054;53.662;10.126;2022-08-21T11:00:03;27.10;71.40
23748;DHT22;12054;53.662;10.126;2022-08-21T11:02:48;27.20;70.30
23748;DHT22;12054;53.662;10.126;2022-08-21T11:05:28;27.20;68.80
23748;DHT22;12054;53.662;10.126;2022-08-21T11:08:02;27.10;68.20
23748;DHT22;12054;53.662;10.126;2022-08-21T11:13:24;27.10;68.70
23748;DHT22;12054;53.662;10.126;2022-08-21T11:16:12;27.10;68.70
23748;DHT22;12054;53.662;10.126;2022-08-21T11:18:53;27.20;68.50
23748;DHT22;12054;53.662;10.126;2022-08-21T11:21:35;27.30;68.50
23748;DHT22;12054;53.662;10.126;2022-08-21T11:24:37;27.40;67.80
23748;DHT22;12054;53.662;10.126;2022-08-21T11:27:25;27.50;66.80
23748;DHT22;12054;53.662;10.126;2022-08-21T11:29:57;27.60;67.20
23748;DHT22;12054;53.662;10.126;2022-08-21T11:41:02;27.80;66.90
23748;DHT22;12054;53.662;10.126;2022-08-21T11:43:45;27.80;65.60
23748;DHT22;12054;53.662;10.126;2022-08-21T11:51:35;28.10;64.30
23748;DHT22;12054;53.662;10.126;2022-08-21T11:54:19;28.10;63.80
23748;DHT22;12054;53.662;10.126;2022-08-21T11:56:59;28.10;62.70
23748;DHT22;12054;53.662;10.126;2022-08-21T11:59:37;28.10;62.80
23748;DHT22;12054;53.662;10.126;2022-08-21T12:02:12;28.10;62.80
23748;DHT22;12054;53.662;10.126;2022-08-21T12:04:46;28.10;62.10
23748;DHT22;12054;53.662;10.126;2022-08-21T12:07:16;28.00;61.10
23748;DHT22;12054;53.662;10.126;2022-08-21T12:09:53;28.10;61.40
23748;DHT22;12054;53.662;10.126;2022-08-21T12:12:28;28.20;61.50
23748;DHT22;12054;53.662;10.126;2022-08-21T12:18:00;28.20;60.80
23748;DHT22;12054;53.662;10.126;2022-08-21T12:28:24;28.00;59.80
23748;DHT22;12054;53.662;10.126;2022-08-21T12:30:51;28.10;60.20
23748;DHT22;12054;53.662;10.126;2022-08-21T12:38:33;28.30;59.20
23748;DHT22;12054;53.662;10.126;2022-08-21T12:41:12;28.40;59.20
23748;DHT22;12054;53.662;10.126;2022-08-21T12:43:45;28.40;59.10
23748;DHT22;12054;53.662;10.126;2022-08-21T12:46:22;28.50;59.00
23748;DHT22;12054;53.662;10.126;2022-08-21T12:48:59;28.60;58.80
23748;DHT22;12054;53.662;10.126;2022-08-21T12:51:34;28.70;58.70
23748;DHT22;12054;53.662;10.126;2022-08-21T12:54:01;28.80;58.30
23748;DHT22;12054;53.662;10.126;2022-08-21T12:56:32;28.80;57.60
23748;DHT22;12054;53.662;10.126;2022-08-21T12:59:04;28.80;57.20
23748;DHT22;12054;53.662;10.126;2022-08-21T13:01:36;28.80;57.10
23748;DHT22;12054;53.662;10.126;2022-08-21T13:04:08;28.70;57.10
23748;DHT22;12054;53.662;10.126;2022-08-21T13:06:43;28.80;57.00
23748;DHT22;12054;53.662;10.126;2022-08-21T13:09:12;28.70;56.80
23748;DHT22;12054;53.662;10.126;2022-08-21T13:11:41;28.70;57.30
23748;DHT22;12054;53.662;10.126;2022-08-21T13:14:25;28.80;57.50
23748;DHT22;12054;53.662;10.126;2022-08-21T13:16:57;28.80;57.60
23748;DHT22;12054;53.662;10.126;2022-08-21T13:19:23;28.80;57.90
23748;DHT22;12054;53.662;10.126;2022-08-21T13:21:49;28.80;57.70
23748;DHT22;12054;53.662;10.126;2022-08-21T13:26:47;28.70;57.50
23748;DHT22;12054;53.662;10.126;2022-08-21T13:29:17;28.70;57.20
23748;DHT22;12054;53.662;10.126;2022-08-21T13:31:55;28.80;57.20
23748;DHT22;12054;53.662;10.126;2022-08-21T13:34:26;28.80;57.10
23748;DHT22;12054;53.662;10.126;2022-08-21T13:36:58;28.70;57.20
23748;DHT22;12054;53.662;10.126;2022-08-21T13:39:24;28.80;57.30
23748;DHT22;12054;53.662;10.126;2022-08-21T13:41:54;28.80;57.50
23748;DHT22;12054;53.662;10.126;2022-08-21T13:44:23;28.70;57.30
23748;DHT22;12054;53.662;10.126;2022-08-21T13:46:52;28.80;57.20
23748;DHT22;12054;53.662;10.126;2022-08-21T13:49:26;28.80;56.90
23748;DHT22;12054;53.662;10.126;2022-08-21T13:51:54;28.80;56.80
23748;DHT22;12054;53.662;10.126;2022-08-21T13:54:40;28.80;56.50
23748;DHT22;12054;53.662;10.126;2022-08-21T13:57:17;28.90;56.30
23748;DHT22;12054;53.662;10.126;2022-08-21T13:59:42;28.90;56.50
23748;DHT22;12054;53.662;10.126;2022-08-21T14:02:14;28.90;56.50
23748;DHT22;12054;53.662;10.126;2022-08-21T14:05:01;29.00;56.70
23748;DHT22;12054;53.662;10.126;2022-08-21T14:07:34;29.00;55.90
23748;DHT22;12054;53.662;10.126;2022-08-21T14:10:06;29.00;56.10
23748;DHT22;12054;53.662;10.126;2022-08-21T14:12:40;29.10;56.00
23748;DHT22;12054;53.662;10.126;2022-08-21T14:15:09;29.10;55.90
23748;DHT22;12054;53.662;10.126;2022-08-21T14:17:37;29.10;55.80
23748;DHT22;12054;53.662;10.126;2022-08-21T14:20:06;29.00;55.60
23748;DHT22;12054;53.662;10.126;2022-08-21T14:22:47;29.00;55.60
23748;DHT22;12054;53.662;10.126;2022-08-21T14:26:00;29.00;55.80
23748;DHT22;12054;53.662;10.126;2022-08-21T14:28:30;29.00;56.10
23748;DHT22;12054;53.662;10.126;2022-08-21T14:30:55;29.00;55.90
23748;DHT22;12054;53.662;10.126;2022-08-21T14:33:28;29.00;55.80
23748;DHT22;12054;53.662;10.126;2022-08-21T14:35:54;29.00;55.90
23748;DHT22;12054;53.662;10.126;2022-08-21T14:38:22;28.90;55.80
23748;DHT22;12054;53.662;10.126;2022-08-21T14:40:57;28.90;55.80
23748;DHT22;12054;53.662;10.126;2022-08-21T14:43:26;28.90;55.80
23748;DHT22;12054;53.662;10.126;2022-08-21T14:45:55;28.90;56.20
23748;DHT22;12054;53.662;10.126;2022-08-21T14:48:21;28.90;56.40
23748;DHT22;12054;53.662;10.126;2022-08-21T14:50:46;28.80;56.40
23748;DHT22;12054;53.662;10.126;2022-08-21T14:53:12;28.70;56.40
23748;DHT22;12054;53.662;10.126;2022-08-21T14:55:39;28.70;56.50
23748;DHT22;12054;53.662;10.126;2022-08-21T14:58:23;28.70;56.20
23748;DHT22;12054;53.662;10.126;2022-08-21T15:00:51;28.60;56.30
23748;DHT22;12054;53.662;10.126;2022-08-21T15:03:18;28.70;56.30
23748;DHT22;12054;53.662;10.126;2022-08-21T15:05:44;28.60;55.90
23748;DHT22;12054;53.662;10.126;2022-08-21T15:08:09;28.60;55.70
23748;DHT22;12054;53.662;10.126;2022-08-21T15:10:35;28.60;55.20
23748;DHT22;12054;53.662;10.126;2022-08-21T15:13:02;28.50;55.00
23748;DHT22;12054;53.662;10.126;2022-08-21T15:15:30;28.50;55.10
23748;DHT22;12054;53.662;10.126;2022-08-21T15:17:58;28.50;55.10
23748;DHT22;12054;53.662;10.126;2022-08-21T15:20:23;28.50;55.10
23748;DHT22;12054;53.662;10.126;2022-08-21T15:22:49;28.40;55.10
23748;DHT22;12054;53.662;10.126;2022-08-21T15:25:15;28.40;55.20
23748;DHT22;12054;53.662;10.126;2022-08-21T15:27:40;28.40;55.30
23748;DHT22;12054;53.662;10.126;2022-08-21T15:30:06;28.30;55.40
23748;DHT22;12054;53.662;10.126;2022-08-21T15:32:32;28.30;55.40
23748;DHT22;12054;53.662;10.126;2022-08-21T15:34:57;28.30;55.60
23748;DHT22;12054;53.662;10.126;2022-08-21T15:37:24;28.20;55.90
23748;DHT22;12054;53.662;10.126;2022-08-21T15:39:50;28.20;55.90
23748;DHT22;12054;53.662;10.126;2022-08-21T15:42:17;28.10;55.90
23748;DHT22;12054;53.662;10.126;2022-08-21T15:44:43;28.00;55.80
23748;DHT22;12054;53.662;10.126;2022-08-21T15:47:15;28.10;56.20
23748;DHT22;12054;53.662;10.126;2022-08-21T15:49:43;28.00;56.30
23748;DHT22;12054;53.662;10.126;2022-08-21T15:52:12;28.00;56.30
23748;DHT22;12054;53.662;10.126;2022-08-21T15:54:37;28.00;56.40
23748;DHT22;12054;53.662;10.126;2022-08-21T15:57:03;27.90;56.70
23748;DHT22;12054;53.662;10.126;2022-08-21T15:59:32;27.90;57.10
23748;DHT22;12054;53.662;10.126;2022-08-21T16:02:03;27.80;57.10
23748;DHT22;12054;53.662;10.126;2022-08-21T16:04:28;27.80;57.20
23748;DHT22;12054;53.662;10.126;2022-08-21T16:06:54;27.80;57.20
23748;DHT22;12054;53.662;10.126;2022-08-21T16:09:20;27.70;57.20
23748;DHT22;12054;53.662;10.126;2022-08-21T16:11:46;27.70;57.30
23748;DHT22;12054;53.662;10.126;2022-08-21T16:14:14;27.40;57.30
23748;DHT22;12054;53.662;10.126;2022-08-21T16:16:40;27.50;57.50
23748;DHT22;12054;53.662;10.126;2022-08-21T16:19:06;27.50;57.50
23748;DHT22;12054;53.662;10.126;2022-08-21T16:21:33;27.40;57.50
23748;DHT22;12054;53.662;10.126;2022-08-21T16:23:59;27.40;57.50
23748;DHT22;12054;53.662;10.126;2022-08-21T16:26:26;27.30;57.60
23748;DHT22;12054;53.662;10.126;2022-08-21T16:28:54;27.30;57.50
23748;DHT22;12054;53.662;10.126;2022-08-21T16:31:22;27.30;57.60
23748;DHT22;12054;53.662;10.126;2022-08-21T16:33:50;27.30;57.70
23748;DHT22;12054;53.662;10.126;2022-08-21T16:36:17;27.20;57.70
23748;DHT22;12054;53.662;10.126;2022-08-21T16:38:43;27.20;57.90
23748;DHT22;12054;53.662;10.126;2022-08-21T16:41:11;27.20;57.90
23748;DHT22;12054;53.662;10.126;2022-08-21T16:43:39;27.10;57.80